Time;durP1;ratioP1;P1;durP2;ratioP2;P2;SDS_P1;SDS_P2;PMS_P1;PMS_P2;Temp;Humidity;BMP_temperature;BMP_pressure;BME280_temperature;BME280_humidity;BME280_pressure;Samples;Min_cycle;Max_cycle;Signal;HPM_P1;HPM_P2
2022/02/05 00:03:41;;;;;;;4.85;0.30;;;3.70;99.90;;;;;;10380268;28;20144;-60
2022/02/05 00:08:36;;;;;;;2.40;0.30;;;3.60;99.90;;;;;;10368384;28;20086;-58
2022/02/05 00:40:45;;;;;;;5.20;0.45;;;3.40;99.90;;;;;;10381918;28;20065;-59
2022/02/05 00:45:43;;;;;;;1.27;0.20;;;3.30;99.90;;;;;;10375417;28;20483;-58
2022/02/05 00:51:06;;;;;;;0.88;0.30;;;3.30;99.90;;;;;;10383059;28;20128;-61
2022/02/05 00:56:16;;;;;;;2.03;0.22;;;3.20;99.90;;;;;;10382160;28;20061;-61
2022/02/05 01:01:18;;;;;;;3.40;0.32;;;3.20;99.90;;;;;;10380856;28;20049;-61
2022/02/05 01:06:20;;;;;;;0.57;0.30;;;3.10;99.90;;;;;;10380723;28;20103;-61
2022/02/05 01:11:22;;;;;;;2.13;1.30;;;3.10;99.90;;;;;;10344799;28;1014821;-58
2022/02/05 01:16:34;;;;;;;5.05;0.35;;;3.10;99.90;;;;;;10385487;28;20046;-58
2022/02/05 01:21:45;;;;;;;2.13;0.40;;;3.10;99.90;;;;;;10381825;28;20129;-58
2022/02/05 01:27:01;;;;;;;3.90;0.30;;;3.20;99.90;;;;;;10382207;28;20138;-59
2022/02/05 01:32:07;;;;;;;3.17;0.55;;;3.30;99.90;;;;;;10386485;28;20057;-60
2022/02/05 02:19:34;;;;;;;2.05;0.30;;;3.20;99.90;;;;;;10383853;28;20115;-59
2022/02/05 02:30:03;;;;;;;1.13;0.38;;;3.00;99.90;;;;;;10385378;28;20375;-58
2022/02/05 02:35:06;;;;;;;2.05;0.38;;;3.00;99.90;;;;;;10381264;28;20041;-59
2022/02/05 02:45:18;;;;;;;0.40;0.30;;;2.80;99.90;;;;;;10385368;28;20053;-58
2022/02/05 03:00:44;;;;;;;3.25;0.77;;;2.80;99.90;;;;;;10383289;28;20080;-60
2022/02/05 03:05:46;;;;;;;3.63;0.60;;;2.90;99.90;;;;;;10379363;28;21679;-61
2022/02/05 03:10:47;;;;;;;2.22;0.43;;;2.90;99.90;;;;;;10375489;28;20129;-60
2022/02/05 03:15:51;;;;;;;6.95;0.70;;;2.90;99.90;;;;;;10383686;28;20439;-60
2022/02/05 03:20:53;;;;;;;2.22;0.73;;;2.90;99.90;;;;;;10381835;28;20072;-61
2022/02/05 03:25:55;;;;;;;4.10;0.90;;;2.90;99.90;;;;;;10380031;28;20092;-59
2022/02/05 03:30:56;;;;;;;4.07;0.88;;;2.90;99.90;;;;;;10377826;28;20064;-59
2022/02/05 03:35:58;;;;;;;4.35;0.85;;;2.80;99.90;;;;;;10388591;28;20064;-59
2022/02/05 03:41:00;;;;;;;5.40;1.23;;;2.80;99.90;;;;;;10380373;28;20099;-61
2022/02/05 03:46:01;;;;;;;5.90;0.65;;;2.80;99.90;;;;;;10385455;28;20136;-61
2022/02/05 03:51:03;;;;;;;3.55;0.60;;;2.80;99.90;;;;;;10378832;28;20115;-58
2022/02/05 03:56:05;;;;;;;3.10;0.57;;;2.70;99.90;;;;;;10381709;28;20072;-60
2022/02/05 04:01:07;;;;;;;4.65;0.63;;;2.70;99.90;;;;;;10377539;28;20129;-61
2022/02/05 04:06:09;;;;;;;4.90;0.70;;;2.60;99.90;;;;;;10375804;28;20053;-59
2022/02/05 04:11:29;;;;;;;3.17;0.73;;;2.60;99.90;;;;;;10382547;28;20124;-59
2022/02/05 04:16:30;;;;;;;2.78;0.63;;;2.60;99.90;;;;;;10380039;28;20133;-59
2022/02/05 04:21:33;;;;;;;5.30;0.68;;;2.60;99.90;;;;;;10380667;28;20053;-58
2022/02/05 04:26:35;;;;;;;3.15;0.82;;;2.50;99.90;;;;;;10381141;28;20072;-60
2022/02/05 04:31:38;;;;;;;0.77;0.47;;;2.50;99.90;;;;;;10380783;28;20077;-58
2022/02/05 04:36:40;;;;;;;4.57;0.60;;;2.50;99.90;;;;;;10381613;28;20045;-59
2022/02/05 04:41:54;;;;;;;4.80;0.90;;;2.60;99.90;;;;;;10389245;28;20045;-58
2022/02/05 04:52:29;;;;;;;3.15;0.47;;;2.50;99.90;;;;;;10374194;28;20140;-58
2022/02/05 05:03:29;;;;;;;5.65;1.05;;;2.40;99.90;;;;;;10380819;28;20072;-58
2022/02/05 05:24:09;;;;;;;6.88;1.10;;;2.30;99.90;;;;;;10377253;28;20073;-60
2022/02/05 05:29:10;;;;;;;8.50;1.10;;;2.20;99.90;;;;;;10383545;28;20124;-61
2022/02/05 05:34:12;;;;;;;5.38;0.88;;;2.20;99.90;;;;;;10386065;28;20077;-61
2022/02/05 05:39:14;;;;;;;2.70;1.10;;;2.10;99.90;;;;;;10387867;28;20144;-60
2022/02/05 05:49:46;;;;;;;4.15;0.85;;;2.10;99.90;;;;;;10381993;28;20967;-59
2022/02/05 05:54:48;;;;;;;5.60;1.67;;;2.10;99.90;;;;;;10387749;28;20189;-58
2022/02/05 05:59:50;;;;;;;2.15;1.00;;;2.00;99.90;;;;;;10383081;28;20081;-61
2022/02/05 06:04:51;;;;;;;5.78;0.95;;;2.00;99.90;;;;;;10383489;28;20151;-60
2022/02/05 06:09:53;;;;;;;2.40;1.15;;;2.00;99.90;;;;;;10384404;28;20091;-58
2022/02/05 06:14:57;;;;;;;1.88;0.70;;;2.00;99.90;;;;;;10382961;28;20107;-58
2022/02/05 06:19:59;;;;;;;3.03;0.70;;;2.00;99.90;;;;;;10369271;28;20053;-58
2022/02/05 06:25:00;;;;;;;3.38;0.95;;;2.00;99.90;;;;;;10377827;28;20072;-60
2022/02/05 06:30:04;;;;;;;7.35;1.00;;;2.00;99.90;;;;;;10386584;28;20674;-58
2022/02/05 06:35:05;;;;;;;3.25;0.70;;;2.00;99.90;;;;;;10379499;28;20084;-59
2022/02/05 06:40:08;;;;;;;3.55;0.85;;;2.00;99.90;;;;;;10382560;28;20054;-61
2022/02/05 06:45:10;;;;;;;4.93;1.50;;;1.90;99.90;;;;;;10380359;28;20069;-60
2022/02/05 06:50:11;;;;;;;2.42;0.98;;;1.90;99.90;;;;;;10381564;28;20107;-60
2022/02/05 06:55:13;;;;;;;2.00;1.08;;;1.80;99.90;;;;;;10381775;28;20343;-65
2022/02/05 07:00:15;;;;;;;8.60;1.13;;;1.80;99.90;;;;;;10382289;28;20056;-65
2022/02/05 07:05:17;;;;;;;5.00;1.25;;;1.80;99.90;;;;;;10382387;28;20633;-65
2022/02/05 07:10:18;;;;;;;2.70;0.98;;;1.80;99.90;;;;;;10387101;28;20049;-65
2022/02/05 07:15:25;;;;;;;2.00;0.95;;;1.80;99.90;;;;;;10378950;28;20123;-65
2022/02/05 07:20:38;;;;;;;5.28;1.33;;;1.80;99.90;;;;;;10381515;28;20377;-65
2022/02/05 07:31:12;;;;;;;5.10;1.23;;;1.80;99.90;;;;;;10379216;28;20073;-65
2022/02/05 07:36:16;;;;;;;4.00;1.48;;;1.90;99.90;;;;;;10378786;28;20054;-65
2022/02/05 07:41:18;;;;;;;5.30;1.30;;;1.90;99.90;;;;;;10383155;28;20072;-65
2022/02/05 07:46:20;;;;;;;5.07;1.10;;;1.90;99.90;;;;;;10376244;28;20073;-65
2022/02/05 07:51:22;;;;;;;4.60;1.20;;;2.00;99.90;;;;;;10389901;28;20061;-65
2022/02/05 07:56:25;;;;;;;5.60;0.80;;;2.10;99.90;;;;;;10380837;28;20126;-65
2022/02/05 08:01:28;;;;;;;4.10;1.10;;;2.10;99.90;;;;;;10375716;28;20958;-65
2022/02/05 08:06:30;;;;;;;4.80;1.30;;;2.20;99.90;;;;;;10378277;28;20092;-66
2022/02/05 08:11:40;;;;;;;5.30;1.15;;;2.20;99.90;;;;;;10375495;28;20135;-66
2022/02/05 08:21:43;;;;;;;3.22;1.02;;;2.30;99.90;;;;;;10387931;28;20128;-66
2022/02/05 08:26:46;;;;;;;5.63;1.30;;;2.40;99.90;;;;;;10372095;28;20069;-66
2022/02/05 08:31:47;;;;;;;4.55;1.42;;;2.50;99.90;;;;;;10389920;28;20053;-66
2022/02/05 08:36:50;;;;;;;5.40;1.13;;;2.50;99.90;;;;;;10384777;28;20442;-66
2022/02/05 08:41:52;;;;;;;7.38;1.45;;;2.60;99.90;;;;;;10386575;28;20060;-66
2022/02/05 08:46:54;;;;;;;4.55;1.17;;;2.70;99.90;;;;;;10388923;28;20038;-66
2022/02/05 08:51:59;;;;;;;5.07;1.05;;;2.80;99.90;;;;;;10383630;28;20053;-67
2022/02/05 08:57:01;;;;;;;3.45;0.98;;;2.90;99.90;;;;;;10382826;28;20038;-66
2022/02/05 09:02:13;;;;;;;3.88;1.35;;;3.10;99.90;;;;;;10381786;28;20084;-66
2022/02/05 09:07:15;;;;;;;7.65;1.20;;;3.20;99.90;;;;;;10388719;28;20155;-66
2022/02/05 09:12:32;;;;;;;7.72;1.20;;;3.40;99.90;;;;;;10390172;28;20065;-66
2022/02/05 09:17:34;;;;;;;;;;;3.50;99.90;;;;;;10386369;28;20136;-66
2022/02/05 09:22:36;;;;;;;5.90;1.08;;;3.60;99.90;;;;;;10380886;28;19925;-65
2022/02/05 09:27:44;;;;;;;2.95;1.30;;;3.70;99.90;;;;;;10386816;28;20144;-66
2022/02/05 09:32:46;;;;;;;3.33;0.90;;;3.80;99.90;;;;;;10387795;28;20616;-66
2022/02/05 09:37:48;;;;;;;4.35;0.95;;;3.90;99.90;;;;;;10385004;28;20112;-67
2022/02/05 09:42:51;;;;;;;6.57;1.30;;;3.90;99.90;;;;;;10388598;28;20048;-65
2022/02/05 09:47:55;;;;;;;3.50;1.17;;;4.00;99.90;;;;;;10385937;28;20296;-67
2022/02/05 09:53:02;;;;;;;4.05;1.38;;;4.10;99.90;;;;;;10386656;28;20143;-67
2022/02/05 09:58:04;;;;;;;4.07;1.73;;;4.20;99.90;;;;;;10385423;28;20045;-67
2022/02/05 10:03:26;;;;;;;7.80;2.38;;;4.20;99.90;;;;;;10381606;28;20153;-67
2022/02/05 10:08:28;;;;;;;5.07;1.27;;;4.30;99.90;;;;;;10384690;28;20060;-67
2022/02/05 10:13:31;;;;;;;5.93;1.60;;;4.50;99.90;;;;;;10380217;28;20108;-67
2022/02/05 10:18:37;;;;;;;2.47;0.70;;;4.60;99.90;;;;;;10381971;28;20049;-67
2022/02/05 10:23:53;;;;;;;3.23;0.73;;;4.70;99.90;;;;;;10376192;28;20080;-67
2022/02/05 10:28:58;;;;;;;4.20;0.60;;;4.90;99.90;;;;;;10379936;28;20123;-67
2022/02/05 10:34:13;;;;;;;2.90;0.80;;;5.10;98.70;;;;;;10382920;28;20053;-67
2022/02/05 10:44:26;;;;;;;3.97;0.40;;;5.20;94.40;;;;;;10380245;28;20119;-67
2022/02/05 10:49:41;;;;;;;3.00;0.55;;;5.20;94.30;;;;;;10385136;28;20103;-67
2022/02/05 10:54:59;;;;;;;1.35;0.50;;;5.30;94.30;;;;;;10382781;28;20107;-67
2022/02/05 11:05:23;;;;;;;2.13;0.40;;;5.60;93.20;;;;;;10385328;28;20045;-67
2022/02/05 11:21:03;;;;;;;3.17;0.47;;;5.80;93.30;;;;;;10375193;28;20049;-67
2022/02/05 11:26:06;;;;;;;3.08;0.40;;;5.90;92.70;;;;;;10380502;28;20073;-67
2022/02/05 11:31:38;;;;;;;2.22;0.32;;;5.90;90.80;;;;;;10382355;28;20077;-65
2022/02/05 11:36:46;;;;;;;2.92;0.80;;;5.90;90.10;;;;;;10379296;28;20107;-65
2022/02/05 11:41:48;;;;;;;2.95;0.35;;;6.10;90.20;;;;;;10374930;28;20057;-65
2022/02/05 11:47:08;;;;;;;2.53;0.50;;;6.10;89.00;;;;;;10382555;28;20077;-65
2022/02/05 11:52:10;;;;;;;1.85;0.30;;;6.20;87.80;;;;;;10380289;28;20100;-66
2022/02/05 11:57:12;;;;;;;1.55;0.57;;;6.20;87.90;;;;;;10376662;28;20045;-65
2022/02/05 12:02:18;;;;;;;3.38;0.57;;;6.20;86.70;;;;;;10378241;28;20116;-65
2022/02/05 12:07:20;;;;;;;4.68;0.52;;;6.30;85.30;;;;;;10399404;28;20480;-65
2022/02/05 12:12:36;;;;;;;2.65;0.30;;;6.40;85.20;;;;;;10382934;28;20045;-65
2022/02/05 12:28:39;;;;;;;5.50;0.77;;;6.60;84.10;;;;;;10380546;28;20154;-66
2022/02/05 12:33:55;;;;;;;0.50;0.30;;;6.70;84.10;;;;;;10386158;28;20037;-65
2022/02/05 12:38:58;;;;;;;2.97;1.25;;;6.80;83.60;;;;;;10387410;28;20045;-65
2022/02/05 12:44:03;;;;;;;1.77;0.40;;;6.90;82.30;;;;;;10380225;28;20053;-65
2022/02/05 12:49:13;;;;;;;0.55;0.30;;;6.90;82.80;;;;;;10389764;28;20407;-66
2022/02/05 12:54:20;;;;;;;0.85;0.20;;;6.90;80.30;;;;;;10388921;28;20115;-66
2022/02/05 12:59:28;;;;;;;5.65;0.30;;;7.00;80.10;;;;;;10386989;28;20072;-65
2022/02/05 13:04:38;;;;;;;0.45;0.20;;;7.00;78.20;;;;;;10385731;28;20127;-65
2022/02/05 13:09:49;;;;;;;2.83;0.20;;;7.00;78.30;;;;;;10387379;28;20129;-65
2022/02/05 13:15:02;;;;;;;1.50;0.25;;;6.90;77.10;;;;;;10386100;28;20104;-64
2022/02/05 13:20:27;;;;;;;0.43;0.32;;;6.90;78.00;;;;;;10373378;28;20046;-64
2022/02/05 13:36:06;;;;;;;0.20;0.15;;;6.90;76.90;;;;;;10387776;28;20053;-65
2022/02/05 13:41:09;;;;;;;1.75;0.30;;;6.80;77.80;;;;;;10396730;28;20454;-64
2022/02/05 13:46:16;;;;;;;1.10;0.20;;;6.70;77.70;;;;;;10389826;28;20041;-65
2022/02/05 13:51:18;;;;;;;2.65;0.20;;;6.60;78.20;;;;;;10384864;28;20053;-64
2022/02/05 13:56:20;;;;;;;3.20;0.20;;;6.70;79.50;;;;;;10387729;28;20081;-64
2022/02/05 14:01:28;;;;;;;0.95;0.20;;;6.70;79.80;;;;;;10382882;28;20084;-64
2022/02/05 14:06:30;;;;;;;3.30;0.40;;;6.70;78.80;;;;;;10384606;28;20073;-64
2022/02/05 14:11:33;;;;;;;2.28;0.20;;;6.90;79.70;;;;;;10387792;28;20045;-65
2022/02/05 14:16:38;;;;;;;8.90;0.50;;;6.80;79.50;;;;;;10387660;28;20045;-65
2022/02/05 14:21:48;;;;;;;3.75;0.93;;;6.80;79.40;;;;;;10386599;28;20136;-69
2022/02/05 14:26:57;;;;;;;1.45;0.38;;;6.80;78.60;;;;;;10383221;28;20124;-65
2022/02/05 14:32:00;;;;;;;2.33;0.28;;;6.80;78.50;;;;;;10380410;28;20508;-61
2022/02/05 14:42:06;;;;;;;2.15;0.40;;;7.10;76.60;;;;;;10384784;28;20092;-61
2022/02/05 14:47:08;;;;;;;5.68;0.40;;;7.10;75.40;;;;;;10389629;28;20057;-64
2022/02/05 14:52:14;;;;;;;2.75;0.80;;;7.10;73.70;;;;;;10379125;28;20137;-64
2022/02/05 14:57:16;;;;;;;2.00;0.40;;;6.90;73.10;;;;;;10384748;28;20085;-64
2022/02/05 15:02:17;;;;;;;1.55;0.77;;;6.80;73.90;;;;;;10379367;28;20476;-64
2022/02/05 15:07:20;;;;;;;1.30;0.40;;;6.60;74.70;;;;;;10383515;28;20484;-64
2022/02/05 15:12:21;;;;;;;3.15;0.50;;;6.60;75.80;;;;;;10378706;28;20139;-64
2022/02/05 15:17:23;;;;;;;2.15;0.50;;;6.40;77.40;;;;;;10373861;28;20144;-64
2022/02/05 15:22:25;;;;;;;2.38;0.70;;;6.40;77.80;;;;;;10377218;28;20077;-64
2022/02/05 15:27:26;;;;;;;4.45;0.45;;;6.30;78.70;;;;;;10378754;28;20080;-64
2022/02/05 15:32:28;;;;;;;2.17;0.40;;;6.20;79.80;;;;;;10378829;28;20556;-63
2022/02/05 15:37:30;;;;;;;0.93;0.32;;;6.10;81.20;;;;;;10378444;28;20073;-64
2022/02/05 15:47:52;;;;;;;2.97;0.75;;;5.90;83.30;;;;;;10380137;28;20884;-65
2022/02/05 15:52:55;;;;;;;1.67;0.43;;;5.90;85.70;;;;;;10379456;28;20046;-64
2022/02/05 15:58:22;;;;;;;2.95;0.55;;;5.80;88.70;;;;;;10374148;28;20049;-63
2022/02/05 16:03:24;;;;;;;10.82;0.68;;;6.00;89.20;;;;;;10378181;28;20046;-63
2022/02/05 16:08:26;;;;;;;1.13;0.50;;;5.90;90.40;;;;;;10385539;28;20073;-64
2022/02/05 16:13:27;;;;;;;4.45;0.70;;;5.90;91.10;;;;;;10378567;28;20136;-64
2022/02/05 16:18:29;;;;;;;5.50;1.23;;;5.90;91.80;;;;;;10377019;28;20504;-64
2022/02/05 16:23:31;;;;;;;3.22;0.70;;;5.80;91.70;;;;;;10372148;28;20139;-64
2022/02/05 16:28:36;;;;;;;1.42;0.40;;;5.80;90.90;;;;;;10373035;28;20049;-64
2022/02/05 16:33:40;;;;;;;4.63;0.80;;;5.70;91.20;;;;;;10372079;28;20136;-64
2022/02/05 16:38:45;;;;;;;7.15;0.90;;;5.60;91.50;;;;;;10379763;28;20076;-64
2022/02/05 16:43:48;;;;;;;1.42;0.50;;;5.40;91.30;;;;;;10379843;28;20136;-64
2022/02/05 16:48:50;;;;;;;2.00;0.50;;;5.40;90.10;;;;;;10379994;28;20049;-65
2022/02/05 16:53:52;;;;;;;2.58;0.57;;;5.20;90.20;;;;;;10375952;28;20088;-64
2022/02/05 16:58:54;;;;;;;1.80;0.60;;;5.10;90.50;;;;;;10382837;28;20135;-64
2022/02/05 17:03:58;;;;;;;4.22;0.70;;;5.00;90.10;;;;;;10389393;28;20100;-64
2022/02/05 17:08:59;;;;;;;3.38;0.90;;;5.00;90.60;;;;;;10379992;28;20046;-64
2022/02/05 17:14:01;;;;;;;3.13;0.47;;;4.90;91.20;;;;;;10388132;28;20057;-64
2022/02/05 17:19:03;;;;;;;3.08;0.75;;;4.80;91.40;;;;;;10387705;28;20127;-64
2022/02/05 17:24:06;;;;;;;4.70;0.70;;;4.80;91.30;;;;;;10385073;28;20492;-64
2022/02/05 17:29:08;;;;;;;7.32;0.77;;;4.70;91.80;;;;;;10382778;28;20077;-64
2022/02/05 17:34:10;;;;;;;3.47;0.95;;;4.70;92.30;;;;;;10383271;28;20124;-61
2022/02/05 17:39:11;;;;;;;1.65;0.77;;;4.60;93.40;;;;;;10385105;28;20091;-60
2022/02/05 17:44:13;;;;;;;5.68;1.20;;;4.60;94.50;;;;;;10383459;28;20053;-60
2022/02/05 17:49:15;;;;;;;7.90;1.17;;;4.50;95.30;;;;;;10382250;28;20115;-60
2022/02/05 17:54:17;;;;;;;6.78;0.50;;;4.50;96.30;;;;;;10388285;28;20538;-60
2022/02/05 17:59:19;;;;;;;4.88;0.98;;;4.40;96.20;;;;;;10383700;28;20042;-60
2022/02/05 18:04:22;;;;;;;5.03;0.80;;;4.40;96.00;;;;;;10344613;28;20073;-61
2022/02/05 18:14:58;;;;;;;2.75;1.00;;;4.30;96.20;;;;;;10379586;28;20077;-61
2022/02/05 18:20:01;;;;;;;6.47;1.40;;;4.30;96.80;;;;;;10383028;28;20511;-61
2022/02/05 18:25:03;;;;;;;3.25;0.77;;;4.30;97.60;;;;;;10381342;28;20131;-60
2022/02/05 18:30:05;;;;;;;3.38;0.68;;;4.30;97.10;;;;;;10387504;28;20128;-60
2022/02/05 18:35:12;;;;;;;;;;;4.30;97.00;;;;;;10378310;28;20136;-60
2022/02/05 18:40:19;;;;;;;2.30;0.60;;;4.20;97.40;;;;;;10382496;28;20415;-61
2022/02/05 18:45:24;;;;;;;1.45;0.50;;;4.20;97.00;;;;;;10385491;28;20122;-61
2022/02/05 18:50:26;;;;;;;2.10;0.60;;;4.20;97.20;;;;;;10385886;28;20144;-60
2022/02/05 18:55:28;;;;;;;0.70;0.43;;;4.20;97.70;;;;;;10380357;28;20083;-61
2022/02/05 19:00:48;;;;;;;3.45;1.20;;;4.20;97.90;;;;;;10389264;28;20139;-59
2022/02/05 19:11:16;;;;;;;4.97;1.02;;;4.20;98.70;;;;;;10380311;28;20045;-61
2022/02/05 19:21:38;;;;;;;5.43;1.02;;;4.20;99.30;;;;;;10380329;28;20045;-60
2022/02/05 19:26:40;;;;;;;2.13;0.70;;;4.30;99.90;;;;;;10382301;28;20508;-60
2022/02/05 19:31:42;;;;;;;1.63;0.90;;;4.30;99.90;;;;;;10383641;28;20129;-61
2022/02/05 19:36:44;;;;;;;3.25;0.65;;;4.20;99.70;;;;;;10381082;28;20096;-60
2022/02/05 19:41:46;;;;;;;3.10;0.50;;;4.20;99.80;;;;;;10385199;28;20081;-60
2022/02/05 19:46:59;;;;;;;4.28;0.57;;;4.20;99.90;;;;;;10382556;28;20105;-59
2022/02/05 19:52:03;;;;;;;2.88;0.77;;;4.20;99.90;;;;;;10379151;28;20135;-60
2022/02/05 19:57:05;;;;;;;3.50;0.55;;;4.20;99.90;;;;;;10385049;28;20084;-60
2022/02/05 20:02:07;;;;;;;5.22;0.70;;;4.20;99.90;;;;;;10382578;28;20049;-61
2022/02/05 20:07:17;;;;;;;5.65;0.80;;;4.20;99.90;;;;;;10383010;28;20092;-60
2022/02/05 20:12:19;;;;;;;8.32;1.00;;;4.10;99.90;;;;;;10379774;28;20520;-61
2022/02/05 20:17:21;;;;;;;9.02;1.20;;;4.20;99.90;;;;;;10385009;28;20081;-61
2022/02/05 20:22:23;;;;;;;4.03;0.82;;;4.20;99.90;;;;;;10374966;28;20128;-61
2022/02/05 20:27:25;;;;;;;5.50;1.52;;;4.10;99.90;;;;;;10381369;28;20049;-61
2022/02/05 20:32:27;;;;;;;3.67;1.08;;;4.10;99.90;;;;;;10382911;28;20050;-61
2022/02/05 20:37:28;;;;;;;4.78;0.85;;;4.00;99.90;;;;;;10387550;28;20157;-61
2022/02/05 20:42:30;;;;;;;2.33;0.75;;;4.10;99.90;;;;;;10392207;28;20068;-61
2022/02/05 20:47:32;;;;;;;4.50;1.00;;;4.10;99.90;;;;;;10382269;28;20047;-61
2022/02/05 20:52:36;;;;;;;2.22;0.70;;;4.10;99.90;;;;;;10387481;28;20053;-61
2022/02/05 20:57:38;;;;;;;5.63;0.77;;;4.10;99.90;;;;;;10385843;28;20132;-61
2022/02/05 21:02:42;;;;;;;4.13;0.80;;;4.20;99.90;;;;;;10386697;28;20103;-61
2022/02/05 21:07:45;;;;;;;7.28;1.23;;;4.20;99.90;;;;;;10388894;28;20077;-62
2022/02/05 21:12:47;;;;;;;4.35;1.13;;;4.30;99.90;;;;;;10387256;28;20108;-60
2022/02/05 21:17:48;;;;;;;4.75;0.80;;;4.40;99.90;;;;;;10387451;28;20125;-60
2022/02/05 21:22:52;;;;;;;3.53;0.70;;;4.40;99.90;;;;;;10390868;28;20101;-60
2022/02/05 21:27:58;;;;;;;4.63;0.90;;;4.40;99.90;;;;;;10387605;28;20142;-60
2022/02/05 21:33:03;;;;;;;2.50;1.00;;;4.30;99.90;;;;;;10391749;28;20033;-60
2022/02/05 21:38:05;;;;;;;4.13;0.90;;;4.40;99.90;;;;;;10390308;28;20308;-61
2022/02/05 21:43:06;;;;;;;3.15;0.90;;;4.40;99.90;;;;;;10384487;28;20076;-59
2022/02/05 21:48:08;;;;;;;2.50;0.55;;;4.30;99.90;;;;;;10386000;28;20048;-60
2022/02/05 21:53:26;;;;;;;;;;;4.40;99.90;;;;;;10390917;28;20132;-61
2022/02/05 21:58:35;;;;;;;6.95;0.70;;;4.40;99.90;;;;;;10389123;28;20570;-60
2022/02/05 22:03:36;;;;;;;6.35;1.00;;;4.40;99.90;;;;;;10380413;28;20053;-61
2022/02/05 22:08:38;;;;;;;2.40;0.63;;;4.40;99.90;;;;;;10385697;28;20057;-61
2022/02/05 22:13:40;;;;;;;3.35;0.68;;;4.40;99.90;;;;;;10385089;28;20503;-60
2022/02/05 22:18:43;;;;;;;3.45;0.50;;;4.40;99.90;;;;;;10383032;28;20092;-61
2022/02/05 22:23:44;;;;;;;3.05;0.70;;;4.50;99.90;;;;;;10381667;28;20111;-61
2022/02/05 22:28:48;;;;;;;2.28;0.73;;;4.50;99.90;;;;;;10382720;28;20057;-61
2022/02/05 22:33:56;;;;;;;4.68;0.50;;;4.50;99.90;;;;;;10400815;28;20094;-60
2022/02/05 22:38:58;;;;;;;1.95;0.70;;;4.60;99.90;;;;;;10380357;28;20550;-60
2022/02/05 22:44:02;;;;;;;3.97;0.95;;;4.60;99.90;;;;;;10383358;28;20056;-60
2022/02/05 22:49:06;;;;;;;2.92;0.50;;;4.60;99.90;;;;;;10382176;28;20041;-60
2022/02/05 22:54:08;;;;;;;3.03;0.50;;;4.60;99.90;;;;;;10385593;28;20141;-60
2022/02/05 22:59:11;;;;;;;4.05;0.60;;;4.60;99.90;;;;;;10383219;28;20080;-61
2022/02/05 23:04:13;;;;;;;9.82;0.80;;;4.60;99.90;;;;;;10378690;28;20121;-60
2022/02/05 23:09:19;;;;;;;3.00;0.70;;;4.70;99.90;;;;;;10381949;28;20061;-61
2022/02/05 23:40:54;;;;;;;4.25;0.70;;;4.90;99.90;;;;;;10379455;28;20057;-61
2022/02/05 23:46:01;;;;;;;5.97;1.00;;;4.90;99.90;;;;;;10384489;28;20131;-61
2022/02/05 23:51:03;;;;;;;5.45;0.50;;;4.90;99.90;;;;;;10381164;28;20127;-61
2022/02/05 23:56:05;;;;;;;2.55;0.50;;;5.00;99.90;;;;;;10369474;28;20128;-61
